Flight Track Log - Related Links

Times and Time Zones

All times are in EDT time to prevent confusion due to time zone crossing. See the VNR109 flight status page for this flight to view local times or setup timezone preferences in your user account.

Time Position Orientation Groundspeed Altitude Reporting Facility
EDT Latitude Longitude Course Direction KTS MPH feet Rate Location/Type
Thu 07:59:27 PM 38.6167 -121.4000 180° South 180 207 2,100  Level Northern Cal TRACON
Thu 08:00:27 PM 38.5667 -121.4000 180° South 186 214 4,000 1,934 Climbing Northern Cal TRACON
Thu 08:01:28 PM 38.5333 -121.3500 130° Southeast 182 209 6,000 1,820 Climbing Northern Cal TRACON
Thu 08:01:56 PM 38.5467 -121.3331 45° Northeast 178 205 6,700 1,685 Climbing Oakland Center
Thu 08:02:57 PM 38.5711 -121.2742 62° Northeast 182 209 8,500 1,561 Climbing Oakland Center
Thu 08:03:59 PM 38.5925 -121.1969 70° East 220 253 9,900 1,463 Climbing Oakland Center
Thu 08:05:00 PM 38.6142 -121.1106 72° East 240 276 11,500 2,066 Climbing Oakland Center
Thu 08:06:01 PM 38.6375 -121.0322 69° East 237 273 14,100 2,585 Climbing Oakland Center
Thu 08:07:03 PM 38.6658 -120.9569 64° Northeast 203 234 16,800 2,098 Climbing Oakland Center
Thu 08:08:04 PM 38.6853 -120.8844 71° East 211 243 18,400 1,073 Climbing Oakland Center
Thu 08:09:06 PM 38.7356 -120.8342 38° Northeast 254 292 19,000 1,024 Climbing Oakland Center
Thu 08:10:07 PM 38.8069 -120.8047 18° North 270 311 20,500 2,049 Climbing Oakland Center
Thu 08:11:09 PM 38.8656 -120.8081 357° North 214 246 23,200 1,902 Climbing Oakland Center
Thu 08:12:10 PM 38.9253 -120.8178 353° North 214 246 24,400 1,328 Climbing Oakland Center
Thu 08:13:11 PM 38.9889 -120.8311 351° North 226 260 25,900 1,463 Climbing Oakland Center
Thu 08:14:13 PM 39.0547 -120.8494 348° North 238 274 27,400 1,463 Climbing Oakland Center
Thu 08:15:14 PM 39.1389 -120.8633 353° North 250 288 28,900 787 Climbing Oakland Center
Thu 08:16:15 PM 39.2167 -120.8753 353° North 272 313 29,000 98 Climbing Oakland Center
Thu 08:17:17 PM 39.3053 -120.8972 349° North 313 360 29,100 49 Climbing Oakland Center
Thu 08:18:18 PM 39.3967 -120.9206 349° North 330 380 29,100 344 Level Oakland Center
Thu 08:19:19 PM 39.4900 -120.9444 349° North 339 390 29,800 1,366 Climbing Oakland Center
Thu 08:20:21 PM 39.5714 -120.9536 355° North 302 348 31,900 1,073 Climbing Oakland Center
Thu 08:21:22 PM 39.6506 -120.9683 352° North 287 330 32,000 49 Climbing Oakland Center
Thu 08:22:24 PM 39.7356 -120.9967 346° North 308 354 32,000 49 Level Oakland Center
Thu 08:23:25 PM 39.8292 -121.0153 351° North 331 381 32,100 -49 Climbing Oakland Center
Thu 08:24:26 PM 39.9189 -121.0858 329° Northwest 349 402 31,900 -829 Descending Oakland Center
Thu 08:25:28 PM 39.8956 -121.1917 254° West 349 402 30,400 -2,000 Descending Oakland Center
Thu 08:26:29 PM 39.8208 -121.2514 212° Southwest 331 381 27,800 -2,780 Descending Oakland Center
Thu 08:27:31 PM 39.7286 -121.2544 181° South 335 386 24,700 -2,927 Descending Oakland Center
Thu 08:28:32 PM 39.6414 -121.2647 185° South 320 368 21,800 -3,098 Descending Oakland Center
Thu 08:29:33 PM 39.5553 -121.2781 187° South 313 360 18,400 -2,976 Descending Oakland Center
Thu 08:30:35 PM 39.4561 -121.2897 185° South 332 382 15,700 -2,390 Descending Oakland Center
Thu 08:31:36 PM 39.3664 -121.3025 186° South 327 376 13,500 -1,967 Descending Oakland Center
Thu 08:32:37 PM 39.2831 -121.3172 188° South 309 356 11,700 -2,000 Descending Oakland Center
Thu 08:33:39 PM 39.1856 -121.3283 185° South 293 337 9,400 -2,049 Descending Oakland Center
Thu 08:34:40 PM 39.1044 -121.3383 185° South 293 337 7,500 -1,875 Descending Oakland Center
Thu 08:34:59 PM 39.0833 -121.3500 203° Southwest 289 333 6,900 -1,624 Descending Northern Cal TRACON
Thu 08:36:05 PM 38.9833 -121.3500 180° South 285 328 5,200 -1,450 Descending Northern Cal TRACON
Thu 08:36:59 PM 38.9167 -121.3667 191° South 286 329 4,000 -1,105 Descending Northern Cal TRACON
Thu 08:37:59 PM 38.8500 -121.3833 191° South 244 281 3,100 -950 Descending Northern Cal TRACON
Thu 08:38:59 PM 38.8000 -121.4000 195° South 210 242 2,100 -1,000 Descending Northern Cal TRACON

Login

Don't have an account? Register now (free) for customized features, flight alerts, and more!